sensor_id;sensor_type;location;lat;lon;timestamp;P1;durP1;ratioP1;P2;durP2;ratioP2
51495;SDS011;37572;52.094;4.870;2023-11-21T00:00:09;30.13;;;13.27;;
51495;SDS011;37572;52.094;4.870;2023-11-21T00:02:37;27.52;;;13.13;;
51495;SDS011;37572;52.094;4.870;2023-11-21T00:05:05;29.90;;;13.38;;
51495;SDS011;37572;52.094;4.870;2023-11-21T00:07:33;26.92;;;13.10;;
51495;SDS011;37572;52.094;4.870;2023-11-21T00:09:58;23.92;;;13.60;;
51495;SDS011;37572;52.094;4.870;2023-11-21T00:12:24;26.53;;;12.20;;
51495;SDS011;37572;52.094;4.870;2023-11-21T00:14:49;29.60;;;13.50;;
51495;SDS011;37572;52.094;4.870;2023-11-21T00:17:15;24.38;;;12.15;;
51495;SDS011;37572;52.094;4.870;2023-11-21T00:19:40;27.87;;;13.00;;
51495;SDS011;37572;52.094;4.870;2023-11-21T00:22:07;27.98;;;13.18;;
51495;SDS011;37572;52.094;4.870;2023-11-21T00:24:33;28.15;;;14.70;;
51495;SDS011;37572;52.094;4.870;2023-11-21T00:26:59;30.42;;;12.95;;
51495;SDS011;37572;52.094;4.870;2023-11-21T00:29:24;23.05;;;11.48;;
51495;SDS011;37572;52.094;4.870;2023-11-21T00:31:50;28.02;;;12.73;;
51495;SDS011;37572;52.094;4.870;2023-11-21T00:34:16;28.10;;;14.52;;
51495;SDS011;37572;52.094;4.870;2023-11-21T00:36:41;25.00;;;14.20;;
51495;SDS011;37572;52.094;4.870;2023-11-21T00:39:06;26.85;;;14.18;;
51495;SDS011;37572;52.094;4.870;2023-11-21T00:41:32;26.88;;;12.27;;
51495;SDS011;37572;52.094;4.870;2023-11-21T00:43:58;27.77;;;12.40;;
51495;SDS011;37572;52.094;4.870;2023-11-21T00:46:24;24.23;;;11.13;;
51495;SDS011;37572;52.094;4.870;2023-11-21T00:48:52;24.35;;;12.13;;
51495;SDS011;37572;52.094;4.870;2023-11-21T00:51:17;39.47;;;12.80;;
51495;SDS011;37572;52.094;4.870;2023-11-21T00:53:42;25.33;;;12.55;;
51495;SDS011;37572;52.094;4.870;2023-11-21T00:56:08;28.47;;;13.70;;
51495;SDS011;37572;52.094;4.870;2023-11-21T00:58:33;22.88;;;12.93;;
51495;SDS011;37572;52.094;4.870;2023-11-21T01:00:58;25.70;;;12.48;;
51495;SDS011;37572;52.094;4.870;2023-11-21T01:03:24;23.93;;;12.43;;
51495;SDS011;37572;52.094;4.870;2023-11-21T01:05:49;28.95;;;11.93;;
51495;SDS011;37572;52.094;4.870;2023-11-21T01:08:15;26.02;;;11.85;;
51495;SDS011;37572;52.094;4.870;2023-11-21T01:10:40;25.38;;;11.98;;
51495;SDS011;37572;52.094;4.870;2023-11-21T01:13:06;22.75;;;12.55;;
51495;SDS011;37572;52.094;4.870;2023-11-21T01:15:32;22.60;;;11.85;;
51495;SDS011;37572;52.094;4.870;2023-11-21T01:17:59;27.23;;;11.50;;
51495;SDS011;37572;52.094;4.870;2023-11-21T01:20:24;22.48;;;11.20;;
51495;SDS011;37572;52.094;4.870;2023-11-21T01:22:50;21.35;;;11.57;;
51495;SDS011;37572;52.094;4.870;2023-11-21T01:25:15;23.90;;;11.70;;
51495;SDS011;37572;52.094;4.870;2023-11-21T01:27:41;22.42;;;10.80;;
51495;SDS011;37572;52.094;4.870;2023-11-21T01:30:07;20.60;;;11.30;;
51495;SDS011;37572;52.094;4.870;2023-11-21T01:32:35;23.10;;;10.63;;
51495;SDS011;37572;52.094;4.870;2023-11-21T01:35:01;24.77;;;10.65;;
51495;SDS011;37572;52.094;4.870;2023-11-21T01:37:26;25.57;;;11.10;;
51495;SDS011;37572;52.094;4.870;2023-11-21T01:39:53;20.40;;;9.50;;
51495;SDS011;37572;52.094;4.870;2023-11-21T01:42:20;23.15;;;10.00;;
51495;SDS011;37572;52.094;4.870;2023-11-21T01:44:45;22.40;;;9.55;;
51495;SDS011;37572;52.094;4.870;2023-11-21T01:47:11;23.30;;;10.77;;
51495;SDS011;37572;52.094;4.870;2023-11-21T01:49:38;19.88;;;9.10;;
51495;SDS011;37572;52.094;4.870;2023-11-21T01:52:03;18.67;;;10.05;;
51495;SDS011;37572;52.094;4.870;2023-11-21T01:54:29;23.75;;;10.35;;
51495;SDS011;37572;52.094;4.870;2023-11-21T01:56:56;21.23;;;9.45;;
51495;SDS011;37572;52.094;4.870;2023-11-21T01:59:27;23.52;;;10.02;;
51495;SDS011;37572;52.094;4.870;2023-11-21T02:01:58;22.63;;;9.70;;
51495;SDS011;37572;52.094;4.870;2023-11-21T02:04:24;19.98;;;9.68;;
51495;SDS011;37572;52.094;4.870;2023-11-21T02:06:50;19.17;;;8.93;;
51495;SDS011;37572;52.094;4.870;2023-11-21T02:09:15;18.27;;;8.63;;
51495;SDS011;37572;52.094;4.870;2023-11-21T02:11:42;20.23;;;8.90;;
51495;SDS011;37572;52.094;4.870;2023-11-21T02:14:07;19.80;;;8.18;;
51495;SDS011;37572;52.094;4.870;2023-11-21T02:16:34;20.75;;;10.15;;
51495;SDS011;37572;52.094;4.870;2023-11-21T02:19:00;17.83;;;8.02;;
51495;SDS011;37572;52.094;4.870;2023-11-21T02:21:26;17.48;;;9.35;;
51495;SDS011;37572;52.094;4.870;2023-11-21T02:23:52;18.60;;;9.40;;
51495;SDS011;37572;52.094;4.870;2023-11-21T02:26:18;19.60;;;8.90;;
51495;SDS011;37572;52.094;4.870;2023-11-21T02:28:43;20.23;;;8.07;;
51495;SDS011;37572;52.094;4.870;2023-11-21T02:31:08;15.63;;;8.73;;
51495;SDS011;37572;52.094;4.870;2023-11-21T02:33:34;16.65;;;8.73;;
51495;SDS011;37572;52.094;4.870;2023-11-21T02:35:59;18.70;;;9.97;;
51495;SDS011;37572;52.094;4.870;2023-11-21T02:38:25;17.90;;;8.10;;
51495;SDS011;37572;52.094;4.870;2023-11-21T02:40:51;20.20;;;8.97;;
51495;SDS011;37572;52.094;4.870;2023-11-21T02:43:16;24.38;;;9.65;;
51495;SDS011;37572;52.094;4.870;2023-11-21T02:45:41;23.23;;;9.47;;
51495;SDS011;37572;52.094;4.870;2023-11-21T02:48:07;19.60;;;8.57;;
51495;SDS011;37572;52.094;4.870;2023-11-21T02:50:32;20.25;;;8.30;;
51495;SDS011;37572;52.094;4.870;2023-11-21T02:52:58;21.67;;;9.32;;
51495;SDS011;37572;52.094;4.870;2023-11-21T02:55:25;17.92;;;8.60;;
51495;SDS011;37572;52.094;4.870;2023-11-21T02:57:51;19.52;;;8.73;;
51495;SDS011;37572;52.094;4.870;2023-11-21T03:00:16;22.07;;;9.30;;
51495;SDS011;37572;52.094;4.870;2023-11-21T03:02:42;19.83;;;9.00;;
51495;SDS011;37572;52.094;4.870;2023-11-21T03:05:08;19.10;;;9.07;;
51495;SDS011;37572;52.094;4.870;2023-11-21T03:07:35;16.92;;;8.95;;
51495;SDS011;37572;52.094;4.870;2023-11-21T03:10:05;18.88;;;8.77;;
51495;SDS011;37572;52.094;4.870;2023-11-21T03:12:31;19.58;;;9.13;;
51495;SDS011;37572;52.094;4.870;2023-11-21T03:14:57;20.80;;;8.88;;
51495;SDS011;37572;52.094;4.870;2023-11-21T03:17:22;22.73;;;9.07;;
51495;SDS011;37572;52.094;4.870;2023-11-21T03:19:47;22.83;;;9.33;;
51495;SDS011;37572;52.094;4.870;2023-11-21T03:22:13;17.10;;;8.97;;
51495;SDS011;37572;52.094;4.870;2023-11-21T03:24:38;21.50;;;9.68;;
51495;SDS011;37572;52.094;4.870;2023-11-21T03:27:03;20.77;;;8.80;;
51495;SDS011;37572;52.094;4.870;2023-11-21T03:29:29;20.58;;;10.30;;
51495;SDS011;37572;52.094;4.870;2023-11-21T03:31:54;23.42;;;8.88;;
51495;SDS011;37572;52.094;4.870;2023-11-21T03:34:27;20.27;;;9.15;;
51495;SDS011;37572;52.094;4.870;2023-11-21T03:36:52;21.58;;;10.15;;
51495;SDS011;37572;52.094;4.870;2023-11-21T03:39:19;16.55;;;8.15;;
51495;SDS011;37572;52.094;4.870;2023-11-21T03:41:45;24.25;;;9.57;;
51495;SDS011;37572;52.094;4.870;2023-11-21T03:44:10;23.58;;;10.02;;
51495;SDS011;37572;52.094;4.870;2023-11-21T03:46:36;19.27;;;9.53;;
51495;SDS011;37572;52.094;4.870;2023-11-21T03:49:01;20.23;;;9.38;;
51495;SDS011;37572;52.094;4.870;2023-11-21T03:51:26;22.63;;;9.10;;
51495;SDS011;37572;52.094;4.870;2023-11-21T03:53:51;20.93;;;8.60;;
51495;SDS011;37572;52.094;4.870;2023-11-21T03:56:17;22.37;;;9.60;;
51495;SDS011;37572;52.094;4.870;2023-11-21T03:58:42;16.50;;;9.13;;
51495;SDS011;37572;52.094;4.870;2023-11-21T04:01:07;24.60;;;8.10;;
51495;SDS011;37572;52.094;4.870;2023-11-21T04:03:33;19.60;;;10.00;;
51495;SDS011;37572;52.094;4.870;2023-11-21T04:05:58;24.90;;;10.23;;
51495;SDS011;37572;52.094;4.870;2023-11-21T04:08:23;18.63;;;9.50;;
51495;SDS011;37572;52.094;4.870;2023-11-21T04:10:50;23.02;;;9.35;;
51495;SDS011;37572;52.094;4.870;2023-11-21T04:13:15;19.23;;;8.33;;
51495;SDS011;37572;52.094;4.870;2023-11-21T04:15:40;16.50;;;7.90;;
51495;SDS011;37572;52.094;4.870;2023-11-21T04:18:06;17.90;;;8.00;;
51495;SDS011;37572;52.094;4.870;2023-11-21T04:20:31;20.60;;;8.30;;
51495;SDS011;37572;52.094;4.870;2023-11-21T04:22:57;17.80;;;8.27;;
51495;SDS011;37572;52.094;4.870;2023-11-21T04:25:22;16.73;;;8.15;;
51495;SDS011;37572;52.094;4.870;2023-11-21T04:27:48;14.95;;;7.68;;
51495;SDS011;37572;52.094;4.870;2023-11-21T04:30:13;15.45;;;7.47;;
51495;SDS011;37572;52.094;4.870;2023-11-21T04:32:39;14.82;;;7.20;;
51495;SDS011;37572;52.094;4.870;2023-11-21T04:35:04;13.93;;;7.33;;
51495;SDS011;37572;52.094;4.870;2023-11-21T04:37:30;15.25;;;6.57;;
51495;SDS011;37572;52.094;4.870;2023-11-21T04:39:56;11.88;;;6.55;;
51495;SDS011;37572;52.094;4.870;2023-11-21T04:42:21;15.77;;;7.13;;
51495;SDS011;37572;52.094;4.870;2023-11-21T04:44:46;12.73;;;6.77;;
51495;SDS011;37572;52.094;4.870;2023-11-21T04:47:12;14.80;;;7.70;;
51495;SDS011;37572;52.094;4.870;2023-11-21T04:49:37;19.38;;;8.73;;
51495;SDS011;37572;52.094;4.870;2023-11-21T04:52:02;17.93;;;7.73;;
51495;SDS011;37572;52.094;4.870;2023-11-21T04:54:30;14.95;;;7.20;;
51495;SDS011;37572;52.094;4.870;2023-11-21T04:56:56;13.23;;;7.28;;
51495;SDS011;37572;52.094;4.870;2023-11-21T04:59:21;16.50;;;7.40;;
51495;SDS011;37572;52.094;4.870;2023-11-21T05:01:49;14.45;;;6.60;;
51495;SDS011;37572;52.094;4.870;2023-11-21T05:04:15;15.18;;;8.13;;
51495;SDS011;37572;52.094;4.870;2023-11-21T05:06:40;13.18;;;6.53;;
51495;SDS011;37572;52.094;4.870;2023-11-21T05:09:06;15.17;;;7.23;;
51495;SDS011;37572;52.094;4.870;2023-11-21T05:11:31;14.27;;;6.35;;
51495;SDS011;37572;52.094;4.870;2023-11-21T05:13:57;15.10;;;8.15;;
51495;SDS011;37572;52.094;4.870;2023-11-21T05:16:25;11.25;;;6.25;;
51495;SDS011;37572;52.094;4.870;2023-11-21T05:18:52;15.57;;;7.93;;
51495;SDS011;37572;52.094;4.870;2023-11-21T05:21:17;11.77;;;6.90;;
51495;SDS011;37572;52.094;4.870;2023-11-21T05:23:45;14.75;;;7.20;;
51495;SDS011;37572;52.094;4.870;2023-11-21T05:26:11;16.55;;;8.45;;
51495;SDS011;37572;52.094;4.870;2023-11-21T05:28:36;15.20;;;6.93;;
51495;SDS011;37572;52.094;4.870;2023-11-21T05:31:02;17.02;;;8.15;;
51495;SDS011;37572;52.094;4.870;2023-11-21T05:33:27;17.57;;;7.33;;
51495;SDS011;37572;52.094;4.870;2023-11-21T05:35:52;15.77;;;7.13;;
51495;SDS011;37572;52.094;4.870;2023-11-21T05:38:18;16.42;;;7.97;;
51495;SDS011;37572;52.094;4.870;2023-11-21T05:40:43;12.57;;;7.03;;
51495;SDS011;37572;52.094;4.870;2023-11-21T05:43:09;16.58;;;8.23;;
51495;SDS011;37572;52.094;4.870;2023-11-21T05:45:34;15.77;;;7.68;;
51495;SDS011;37572;52.094;4.870;2023-11-21T05:47:59;14.00;;;8.40;;
51495;SDS011;37572;52.094;4.870;2023-11-21T05:50:25;12.50;;;7.15;;
51495;SDS011;37572;52.094;4.870;2023-11-21T05:52:50;13.98;;;7.60;;
51495;SDS011;37572;52.094;4.870;2023-11-21T05:55:15;12.57;;;7.17;;
51495;SDS011;37572;52.094;4.870;2023-11-21T05:57:42;13.68;;;7.65;;
51495;SDS011;37572;52.094;4.870;2023-11-21T06:00:09;16.08;;;8.98;;
51495;SDS011;37572;52.094;4.870;2023-11-21T06:02:40;12.00;;;7.35;;
51495;SDS011;37572;52.094;4.870;2023-11-21T06:05:08;12.18;;;7.03;;
51495;SDS011;37572;52.094;4.870;2023-11-21T06:07:34;12.13;;;7.25;;
51495;SDS011;37572;52.094;4.870;2023-11-21T06:10:01;13.65;;;7.65;;
51495;SDS011;37572;52.094;4.870;2023-11-21T06:12:28;13.27;;;7.60;;
51495;SDS011;37572;52.094;4.870;2023-11-21T06:14:53;13.00;;;7.18;;
51495;SDS011;37572;52.094;4.870;2023-11-21T06:17:18;12.03;;;6.83;;
51495;SDS011;37572;52.094;4.870;2023-11-21T06:19:44;12.20;;;6.47;;
51495;SDS011;37572;52.094;4.870;2023-11-21T06:22:10;11.63;;;7.05;;
51495;SDS011;37572;52.094;4.870;2023-11-21T06:24:36;10.55;;;6.60;;
51495;SDS011;37572;52.094;4.870;2023-11-21T06:27:03;14.35;;;7.75;;
51495;SDS011;37572;52.094;4.870;2023-11-21T06:29:29;12.57;;;7.07;;
51495;SDS011;37572;52.094;4.870;2023-11-21T06:31:55;11.33;;;6.27;;
51495;SDS011;37572;52.094;4.870;2023-11-21T06:34:20;13.17;;;7.03;;
51495;SDS011;37572;52.094;4.870;2023-11-21T06:36:46;12.73;;;6.03;;
51495;SDS011;37572;52.094;4.870;2023-11-21T06:39:11;12.55;;;6.75;;
51495;SDS011;37572;52.094;4.870;2023-11-21T06:41:37;10.02;;;5.90;;
51495;SDS011;37572;52.094;4.870;2023-11-21T06:44:04;9.73;;;4.90;;
51495;SDS011;37572;52.094;4.870;2023-11-21T06:46:29;9.68;;;5.97;;
51495;SDS011;37572;52.094;4.870;2023-11-21T06:48:54;11.17;;;6.20;;
51495;SDS011;37572;52.094;4.870;2023-11-21T06:51:20;13.05;;;6.55;;
51495;SDS011;37572;52.094;4.870;2023-11-21T06:53:46;10.97;;;5.40;;
51495;SDS011;37572;52.094;4.870;2023-11-21T06:56:17;12.43;;;5.60;;
51495;SDS011;37572;52.094;4.870;2023-11-21T06:58:44;10.38;;;5.88;;
51495;SDS011;37572;52.094;4.870;2023-11-21T07:01:10;10.95;;;5.47;;
51495;SDS011;37572;52.094;4.870;2023-11-21T07:03:36;14.13;;;6.85;;
51495;SDS011;37572;52.094;4.870;2023-11-21T07:06:02;12.35;;;5.95;;
51495;SDS011;37572;52.094;4.870;2023-11-21T07:08:28;15.30;;;6.55;;
51495;SDS011;37572;52.094;4.870;2023-11-21T07:10:53;15.40;;;5.47;;
51495;SDS011;37572;52.094;4.870;2023-11-21T07:13:18;12.70;;;6.23;;
51495;SDS011;37572;52.094;4.870;2023-11-21T07:15:43;14.93;;;6.43;;
51495;SDS011;37572;52.094;4.870;2023-11-21T07:18:09;12.02;;;6.55;;
51495;SDS011;37572;52.094;4.870;2023-11-21T07:20:35;14.63;;;5.73;;
51495;SDS011;37572;52.094;4.870;2023-11-21T07:23:00;9.77;;;5.40;;
51495;SDS011;37572;52.094;4.870;2023-11-21T07:25:27;12.02;;;5.90;;
51495;SDS011;37572;52.094;4.870;2023-11-21T07:27:53;14.43;;;6.05;;
51495;SDS011;37572;52.094;4.870;2023-11-21T07:30:20;11.07;;;6.05;;
51495;SDS011;37572;52.094;4.870;2023-11-21T07:32:47;16.92;;;6.95;;
51495;SDS011;37572;52.094;4.870;2023-11-21T07:35:12;10.68;;;5.13;;
51495;SDS011;37572;52.094;4.870;2023-11-21T07:37:38;14.63;;;6.28;;
51495;SDS011;37572;52.094;4.870;2023-11-21T07:40:03;10.30;;;5.20;;
51495;SDS011;37572;52.094;4.870;2023-11-21T07:42:29;13.45;;;6.25;;
51495;SDS011;37572;52.094;4.870;2023-11-21T07:44:54;15.68;;;6.10;;
51495;SDS011;37572;52.094;4.870;2023-11-21T07:47:20;8.63;;;4.68;;
51495;SDS011;37572;52.094;4.870;2023-11-21T07:49:46;11.52;;;5.07;;
51495;SDS011;37572;52.094;4.870;2023-11-21T07:52:12;11.50;;;5.50;;
51495;SDS011;37572;52.094;4.870;2023-11-21T07:54:38;11.43;;;6.00;;
51495;SDS011;37572;52.094;4.870;2023-11-21T07:57:03;16.17;;;6.77;;
51495;SDS011;37572;52.094;4.870;2023-11-21T07:59:29;13.75;;;6.05;;
51495;SDS011;37572;52.094;4.870;2023-11-21T08:01:54;14.85;;;6.55;;
51495;SDS011;37572;52.094;4.870;2023-11-21T08:04:20;21.70;;;8.03;;
51495;SDS011;37572;52.094;4.870;2023-11-21T08:06:45;16.97;;;7.13;;
51495;SDS011;37572;52.094;4.870;2023-11-21T08:09:10;20.50;;;7.93;;
51495;SDS011;37572;52.094;4.870;2023-11-21T08:11:37;14.30;;;6.97;;
51495;SDS011;37572;52.094;4.870;2023-11-21T08:14:03;16.88;;;6.78;;
51495;SDS011;37572;52.094;4.870;2023-11-21T08:16:30;14.07;;;6.32;;
51495;SDS011;37572;52.094;4.870;2023-11-21T08:18:55;16.65;;;6.90;;
51495;SDS011;37572;52.094;4.870;2023-11-21T08:21:20;15.45;;;6.55;;
51495;SDS011;37572;52.094;4.870;2023-11-21T08:23:46;13.35;;;6.53;;
51495;SDS011;37572;52.094;4.870;2023-11-21T08:26:12;13.70;;;6.22;;
51495;SDS011;37572;52.094;4.870;2023-11-21T08:28:40;16.15;;;6.00;;
51495;SDS011;37572;52.094;4.870;2023-11-21T08:31:05;13.90;;;5.90;;
51495;SDS011;37572;52.094;4.870;2023-11-21T08:33:31;11.20;;;5.33;;
51495;SDS011;37572;52.094;4.870;2023-11-21T08:35:56;13.35;;;5.43;;
51495;SDS011;37572;52.094;4.870;2023-11-21T08:38:22;11.57;;;5.60;;
51495;SDS011;37572;52.094;4.870;2023-11-21T08:40:47;12.20;;;5.20;;
51495;SDS011;37572;52.094;4.870;2023-11-21T08:43:12;13.93;;;5.10;;
51495;SDS011;37572;52.094;4.870;2023-11-21T08:45:39;13.02;;;5.32;;
51495;SDS011;37572;52.094;4.870;2023-11-21T08:48:04;12.70;;;4.70;;
51495;SDS011;37572;52.094;4.870;2023-11-21T08:50:30;9.77;;;4.82;;
51495;SDS011;37572;52.094;4.870;2023-11-21T08:52:56;11.45;;;4.88;;
51495;SDS011;37572;52.094;4.870;2023-11-21T08:55:21;9.40;;;4.55;;
51495;SDS011;37572;52.094;4.870;2023-11-21T08:57:47;8.68;;;3.90;;
51495;SDS011;37572;52.094;4.870;2023-11-21T09:00:12;10.00;;;4.30;;
51495;SDS011;37572;52.094;4.870;2023-11-21T09:02:42;8.30;;;4.30;;
51495;SDS011;37572;52.094;4.870;2023-11-21T09:05:09;10.88;;;4.25;;
51495;SDS011;37572;52.094;4.870;2023-11-21T09:07:38;9.75;;;3.53;;
51495;SDS011;37572;52.094;4.870;2023-11-21T09:10:04;7.63;;;4.43;;
51495;SDS011;37572;52.094;4.870;2023-11-21T09:12:34;8.40;;;3.55;;
51495;SDS011;37572;52.094;4.870;2023-11-21T09:15:03;8.43;;;3.85;;
51495;SDS011;37572;52.094;4.870;2023-11-21T09:17:29;9.55;;;4.45;;
51495;SDS011;37572;52.094;4.870;2023-11-21T09:19:55;8.98;;;3.25;;
51495;SDS011;37572;52.094;4.870;2023-11-21T09:22:22;8.38;;;3.78;;
51495;SDS011;37572;52.094;4.870;2023-11-21T09:24:47;9.90;;;4.20;;
51495;SDS011;37572;52.094;4.870;2023-11-21T09:27:13;10.05;;;4.18;;
51495;SDS011;37572;52.094;4.870;2023-11-21T09:29:40;8.23;;;4.10;;
51495;SDS011;37572;52.094;4.870;2023-11-21T09:32:05;9.55;;;3.75;;
51495;SDS011;37572;52.094;4.870;2023-11-21T09:34:33;8.98;;;4.10;;
51495;SDS011;37572;52.094;4.870;2023-11-21T09:37:03;9.18;;;4.40;;
51495;SDS011;37572;52.094;4.870;2023-11-21T09:39:30;12.40;;;4.43;;
51495;SDS011;37572;52.094;4.870;2023-11-21T09:42:15;9.77;;;4.93;;
51495;SDS011;37572;52.094;4.870;2023-11-21T09:47:32;8.05;;;4.05;;
51495;SDS011;37572;52.094;4.870;2023-11-21T09:50:01;7.38;;;4.10;;
51495;SDS011;37572;52.094;4.870;2023-11-21T09:52:27;9.13;;;4.50;;
51495;SDS011;37572;52.094;4.870;2023-11-21T09:54:53;8.35;;;4.25;;
51495;SDS011;37572;52.094;4.870;2023-11-21T09:57:23;7.90;;;4.70;;
51495;SDS011;37572;52.094;4.870;2023-11-21T09:59:51;8.98;;;4.45;;
51495;SDS011;37572;52.094;4.870;2023-11-21T10:02:24;8.80;;;3.97;;
51495;SDS011;37572;52.094;4.870;2023-11-21T10:04:51;7.03;;;3.38;;
51495;SDS011;37572;52.094;4.870;2023-11-21T10:07:18;6.82;;;3.35;;
51495;SDS011;37572;52.094;4.870;2023-11-21T10:09:45;8.07;;;4.15;;
51495;SDS011;37572;52.094;4.870;2023-11-21T10:12:11;7.47;;;3.70;;
51495;SDS011;37572;52.094;4.870;2023-11-21T10:14:40;9.00;;;4.32;;
51495;SDS011;37572;52.094;4.870;2023-11-21T10:17:06;9.82;;;4.35;;
51495;SDS011;37572;52.094;4.870;2023-11-21T10:19:33;7.80;;;4.15;;
51495;SDS011;37572;52.094;4.870;2023-11-21T10:22:01;11.68;;;5.30;;
51495;SDS011;37572;52.094;4.870;2023-11-21T10:24:27;9.18;;;4.80;;
51495;SDS011;37572;52.094;4.870;2023-11-21T10:26:52;12.70;;;5.23;;
51495;SDS011;37572;52.094;4.870;2023-11-21T10:29:18;11.40;;;6.22;;
51495;SDS011;37572;52.094;4.870;2023-11-21T10:31:48;10.48;;;4.85;;
51495;SDS011;37572;52.094;4.870;2023-11-21T10:34:15;10.52;;;4.38;;
51495;SDS011;37572;52.094;4.870;2023-11-21T10:36:41;11.68;;;5.05;;
51495;SDS011;37572;52.094;4.870;2023-11-21T10:39:07;10.32;;;4.95;;
51495;SDS011;37572;52.094;4.870;2023-11-21T10:41:33;12.50;;;5.53;;
51495;SDS011;37572;52.094;4.870;2023-11-21T10:44:00;12.77;;;5.53;;
51495;SDS011;37572;52.094;4.870;2023-11-21T10:46:26;13.13;;;6.35;;
51495;SDS011;37572;52.094;4.870;2023-11-21T10:48:53;12.32;;;6.07;;
51495;SDS011;37572;52.094;4.870;2023-11-21T10:51:21;13.27;;;6.60;;
51495;SDS011;37572;52.094;4.870;2023-11-21T10:53:47;12.13;;;5.90;;
51495;SDS011;37572;52.094;4.870;2023-11-21T10:56:15;14.38;;;5.75;;
51495;SDS011;37572;52.094;4.870;2023-11-21T10:58:45;13.50;;;6.15;;
51495;SDS011;37572;52.094;4.870;2023-11-21T11:01:10;13.00;;;6.40;;
51495;SDS011;37572;52.094;4.870;2023-11-21T11:03:37;14.35;;;7.68;;
51495;SDS011;37572;52.094;4.870;2023-11-21T11:06:04;18.98;;;7.10;;
51495;SDS011;37572;52.094;4.870;2023-11-21T11:08:32;19.27;;;8.60;;
51495;SDS011;37572;52.094;4.870;2023-11-21T11:10:59;16.05;;;8.18;;
51495;SDS011;37572;52.094;4.870;2023-11-21T11:13:24;17.07;;;8.23;;
51495;SDS011;37572;52.094;4.870;2023-11-21T11:15:50;15.10;;;7.18;;
51495;SDS011;37572;52.094;4.870;2023-11-21T11:18:20;16.52;;;7.10;;
51495;SDS011;37572;52.094;4.870;2023-11-21T11:20:47;17.67;;;7.97;;
51495;SDS011;37572;52.094;4.870;2023-11-21T11:23:32;13.30;;;6.60;;
51495;SDS011;37572;52.094;4.870;2023-11-21T11:28:57;14.85;;;6.75;;
51495;SDS011;37572;52.094;4.870;2023-11-21T11:34:44;16.05;;;6.55;;
51495;SDS011;37572;52.094;4.870;2023-11-21T11:37:14;16.38;;;6.07;;
51495;SDS011;37572;52.094;4.870;2023-11-21T11:39:41;14.63;;;5.38;;
51495;SDS011;37572;52.094;4.870;2023-11-21T11:42:10;15.75;;;6.18;;
51495;SDS011;37572;52.094;4.870;2023-11-21T11:47:30;17.45;;;7.88;;
51495;SDS011;37572;52.094;4.870;2023-11-21T11:50:12;16.52;;;6.28;;
51495;SDS011;37572;52.094;4.870;2023-11-21T11:53:11;16.42;;;6.85;;
51495;SDS011;37572;52.094;4.870;2023-11-21T11:55:38;13.68;;;6.28;;
51495;SDS011;37572;52.094;4.870;2023-11-21T11:58:04;15.75;;;7.03;;
51495;SDS011;37572;52.094;4.870;2023-11-21T12:02:58;15.75;;;6.43;;
51495;SDS011;37572;52.094;4.870;2023-11-21T12:05:27;13.88;;;6.72;;
51495;SDS011;37572;52.094;4.870;2023-11-21T12:07:54;13.57;;;5.88;;
51495;SDS011;37572;52.094;4.870;2023-11-21T12:10:20;16.63;;;7.22;;
51495;SDS011;37572;52.094;4.870;2023-11-21T12:12:50;17.55;;;7.65;;
51495;SDS011;37572;52.094;4.870;2023-11-21T12:15:19;19.50;;;7.85;;
51495;SDS011;37572;52.094;4.870;2023-11-21T12:17:46;18.35;;;7.78;;
51495;SDS011;37572;52.094;4.870;2023-11-21T12:20:14;20.20;;;8.38;;
51495;SDS011;37572;52.094;4.870;2023-11-21T12:22:51;20.58;;;8.63;;
51495;SDS011;37572;52.094;4.870;2023-11-21T12:25:22;17.98;;;7.43;;
51495;SDS011;37572;52.094;4.870;2023-11-21T12:27:49;16.05;;;6.82;;
51495;SDS011;37572;52.094;4.870;2023-11-21T12:30:17;17.45;;;7.00;;
51495;SDS011;37572;52.094;4.870;2023-11-21T12:32:50;18.45;;;7.88;;
51495;SDS011;37572;52.094;4.870;2023-11-21T12:35:17;15.48;;;7.00;;
51495;SDS011;37572;52.094;4.870;2023-11-21T12:37:44;15.73;;;6.70;;
51495;SDS011;37572;52.094;4.870;2023-11-21T12:40:11;16.08;;;8.77;;
51495;SDS011;37572;52.094;4.870;2023-11-21T12:42:40;15.95;;;7.38;;
51495;SDS011;37572;52.094;4.870;2023-11-21T12:45:07;18.23;;;7.47;;
51495;SDS011;37572;52.094;4.870;2023-11-21T12:47:34;16.55;;;7.28;;
51495;SDS011;37572;52.094;4.870;2023-11-21T12:50:02;17.58;;;7.60;;
51495;SDS011;37572;52.094;4.870;2023-11-21T12:52:28;18.65;;;8.43;;
51495;SDS011;37572;52.094;4.870;2023-11-21T12:54:53;16.13;;;7.53;;
51495;SDS011;37572;52.094;4.870;2023-11-21T12:57:19;16.35;;;7.60;;
51495;SDS011;37572;52.094;4.870;2023-11-21T12:59:45;21.35;;;9.30;;
51495;SDS011;37572;52.094;4.870;2023-11-21T13:02:12;20.65;;;7.75;;
51495;SDS011;37572;52.094;4.870;2023-11-21T13:04:40;20.48;;;8.45;;
51495;SDS011;37572;52.094;4.870;2023-11-21T13:07:05;18.80;;;8.37;;
51495;SDS011;37572;52.094;4.870;2023-11-21T13:09:40;19.67;;;8.95;;
51495;SDS011;37572;52.094;4.870;2023-11-21T13:12:06;20.75;;;8.88;;
51495;SDS011;37572;52.094;4.870;2023-11-21T13:14:33;19.95;;;8.65;;
51495;SDS011;37572;52.094;4.870;2023-11-21T13:16:59;22.42;;;9.30;;
51495;SDS011;37572;52.094;4.870;2023-11-21T13:19:24;21.93;;;9.03;;
51495;SDS011;37572;52.094;4.870;2023-11-21T13:21:49;22.03;;;10.27;;
51495;SDS011;37572;52.094;4.870;2023-11-21T13:24:15;23.95;;;10.02;;
51495;SDS011;37572;52.094;4.870;2023-11-21T13:26:41;19.70;;;9.98;;
51495;SDS011;37572;52.094;4.870;2023-11-21T13:29:07;22.88;;;9.88;;
51495;SDS011;37572;52.094;4.870;2023-11-21T13:31:32;18.90;;;9.20;;
51495;SDS011;37572;52.094;4.870;2023-11-21T13:34:01;22.27;;;9.23;;
51495;SDS011;37572;52.094;4.870;2023-11-21T13:36:30;22.45;;;10.20;;
51495;SDS011;37572;52.094;4.870;2023-11-21T13:38:58;20.88;;;9.20;;
51495;SDS011;37572;52.094;4.870;2023-11-21T13:41:24;20.70;;;10.32;;
51495;SDS011;37572;52.094;4.870;2023-11-21T13:43:55;19.45;;;9.15;;
51495;SDS011;37572;52.094;4.870;2023-11-21T13:46:29;20.77;;;9.20;;
51495;SDS011;37572;52.094;4.870;2023-11-21T13:49:01;22.85;;;10.60;;
51495;SDS011;37572;52.094;4.870;2023-11-21T13:51:27;20.17;;;9.27;;
51495;SDS011;37572;52.094;4.870;2023-11-21T13:54:04;20.42;;;9.60;;
51495;SDS011;37572;52.094;4.870;2023-11-21T13:56:34;19.83;;;9.93;;
51495;SDS011;37572;52.094;4.870;2023-11-21T13:58:59;18.95;;;8.38;;
51495;SDS011;37572;52.094;4.870;2023-11-21T14:01:34;20.23;;;9.52;;
51495;SDS011;37572;52.094;4.870;2023-11-21T14:04:18;19.02;;;9.30;;
51495;SDS011;37572;52.094;4.870;2023-11-21T14:06:44;22.80;;;10.13;;
51495;SDS011;37572;52.094;4.870;2023-11-21T14:09:17;20.83;;;9.43;;
51495;SDS011;37572;52.094;4.870;2023-11-21T14:11:51;22.40;;;9.48;;
51495;SDS011;37572;52.094;4.870;2023-11-21T14:14:18;19.92;;;8.88;;
51495;SDS011;37572;52.094;4.870;2023-11-21T14:16:44;19.88;;;9.95;;
51495;SDS011;37572;52.094;4.870;2023-11-21T14:19:09;22.80;;;10.02;;
51495;SDS011;37572;52.094;4.870;2023-11-21T14:21:40;21.77;;;9.65;;
51495;SDS011;37572;52.094;4.870;2023-11-21T14:24:09;22.50;;;10.68;;
51495;SDS011;37572;52.094;4.870;2023-11-21T14:26:35;20.80;;;10.23;;
51495;SDS011;37572;52.094;4.870;2023-11-21T14:29:00;22.23;;;10.10;;
51495;SDS011;37572;52.094;4.870;2023-11-21T14:31:27;19.38;;;8.85;;
51495;SDS011;37572;52.094;4.870;2023-11-21T14:33:55;20.23;;;8.63;;
51495;SDS011;37572;52.094;4.870;2023-11-21T14:36:20;19.57;;;8.93;;
51495;SDS011;37572;52.094;4.870;2023-11-21T14:38:45;23.27;;;9.00;;
51495;SDS011;37572;52.094;4.870;2023-11-21T14:41:11;20.80;;;9.67;;
51495;SDS011;37572;52.094;4.870;2023-11-21T14:43:36;21.58;;;9.27;;